KFLO/FLO METAR and TAF weather

Enter ICAO airport designator
Station Type Date Time Source
KFLO METAR 2019/06/19 06:53 UTC NOAA

KFLO 190653Z AUTO 19006KT 10SM FEW017 26/23 A2989 RMK AO2 SLP118 T02610233


Station Type Date Time Source
KFLO Decoded METAR 2019/06/19 06:53 UTC NOAA

FLORENCE REGIONAL AIRPORT, SC, United States (KFLO) 34-11N 079-44W 44M
Jun 19, 2019 - 02:53 AM EDT / 2019.06.19 0653 UTC
Wind: from the S (190 degrees) at 7 MPH (6 KT):0
Visibility: 10 mile(s):0
Sky conditions: mostly clear
Temperature: 79.0 F (26.1 C)
Dew Point: 73.9 F (23.3 C)
Relative Humidity: 84%
Pressure (altimeter): 29.89 in. Hg (1012 hPa)
ob: KFLO 190653Z AUTO 19006KT 10SM FEW017 26/23 A2989 RMK AO2 SLP118 T02610233
cycle: 7

Station Type Date Time Source
KFLO TAF 2019/06/19 06:33 UTC NOAA

TAF KFLO 190530Z 1906/2006 VRB03KT P6SM OVC120
FM191400 23009G17KT P6SM SCT045
FM191900 21010G19KT P6SM VCSH BKN050
FM200000 21006KT P6SM BKN100

Example: see airport list